createdAt,value
2022-08-01T00:00:13.751Z,100.00
2022-08-01T00:03:02.964Z,100.00
2022-08-01T00:05:32.637Z,100.00
2022-08-01T00:08:01.529Z,100.00
2022-08-01T00:10:30.520Z,100.00
2022-08-01T00:12:59.345Z,100.00
2022-08-01T00:15:28.374Z,100.00
2022-08-01T00:17:57.193Z,100.00
2022-08-01T00:20:26.399Z,100.00
2022-08-01T00:22:55.181Z,100.00
2022-08-01T00:25:34.173Z,100.00
2022-08-01T00:28:04.267Z,100.00
2022-08-01T00:37:38.429Z,100.00
2022-08-01T00:40:12.354Z,100.00
2022-08-01T00:42:44.592Z,100.00
2022-08-01T00:45:16.941Z,100.00
2022-08-01T00:47:49.391Z,100.00
2022-08-01T00:50:29.139Z,100.00
2022-08-01T00:53:02.144Z,100.00
2022-08-01T00:55:35.293Z,100.00
2022-08-01T00:58:08.512Z,100.00
2022-08-01T01:00:52.962Z,100.00
2022-08-01T01:03:56.301Z,100.00
2022-08-01T01:06:29.330Z,100.00
2022-08-01T01:09:18.585Z,100.00
2022-08-01T01:12:04.173Z,100.00
2022-08-01T01:14:47.443Z,100.00
2022-08-01T01:17:49.748Z,100.00
2022-08-01T01:20:18.523Z,100.00
2022-08-01T01:23:11.555Z,100.00
2022-08-01T01:26:07.340Z,100.00
2022-08-01T01:28:52.007Z,100.00
2022-08-01T01:31:26.719Z,100.00
2022-08-01T01:34:01.214Z,100.00
2022-08-01T01:36:35.999Z,100.00
2022-08-01T01:39:09.129Z,100.00
2022-08-01T01:41:43.540Z,100.00
2022-08-01T01:44:17.550Z,100.00
2022-08-01T01:46:51.118Z,100.00
2022-08-01T01:49:27.940Z,100.00
2022-08-01T01:52:03.980Z,100.00
2022-08-01T01:54:43.035Z,100.00
2022-08-01T01:57:19.237Z,100.00
2022-08-01T01:59:55.543Z,100.00
2022-08-01T02:02:29.350Z,100.00
2022-08-01T02:05:03.095Z,100.00
2022-08-01T02:07:37.027Z,100.00
2022-08-01T02:10:12.479Z,100.00
2022-08-01T02:12:46.661Z,100.00
2022-08-01T02:15:20.494Z,100.00
2022-08-01T02:17:55.054Z,100.00
2022-08-01T02:20:55.148Z,100.00
2022-08-01T02:23:30.836Z,100.00
2022-08-01T02:26:10.993Z,100.00
2022-08-01T02:28:49.942Z,100.00
2022-08-01T02:31:24.927Z,100.00
2022-08-01T02:34:04.422Z,100.00
2022-08-01T02:36:38.676Z,100.00
2022-08-01T02:39:15.208Z,100.00
2022-08-01T02:41:51.438Z,100.00
2022-08-01T02:44:31.089Z,100.00
2022-08-01T02:47:05.752Z,100.00
2022-08-01T02:49:41.453Z,100.00
2022-08-01T02:52:21.119Z,100.00
2022-08-01T02:54:57.276Z,100.00
2022-08-01T02:57:51.893Z,100.00
2022-08-01T03:00:27.204Z,100.00
2022-08-01T03:03:01.693Z,100.00
2022-08-01T03:05:35.167Z,100.00
2022-08-01T03:08:14.563Z,100.00
2022-08-01T03:10:49.193Z,100.00
2022-08-01T03:13:22.645Z,100.00
2022-08-01T03:15:56.741Z,100.00
2022-08-01T03:18:33.153Z,100.00
2022-08-01T03:21:06.466Z,100.00
2022-08-01T03:23:40.621Z,100.00
2022-08-01T03:26:13.575Z,100.00
2022-08-01T03:28:49.398Z,100.00
2022-08-01T03:31:22.499Z,100.00
2022-08-01T03:33:54.868Z,100.00
2022-08-01T03:36:30.894Z,100.00
2022-08-01T03:39:06.789Z,100.00
2022-08-01T03:41:43.750Z,100.00
2022-08-01T03:44:19.987Z,100.00
2022-08-01T03:46:56.242Z,100.00
2022-08-01T03:49:32.490Z,100.00
2022-08-01T03:52:08.851Z,100.00
2022-08-01T03:54:43.168Z,100.00
2022-08-01T03:57:36.142Z,100.00
2022-08-01T04:00:11.904Z,100.00
2022-08-01T04:02:47.592Z,100.00
2022-08-01T04:05:20.205Z,100.00
2022-08-01T04:07:59.631Z,100.00
2022-08-01T04:10:35.249Z,100.00
2022-08-01T04:13:07.551Z,100.00
2022-08-01T04:15:40.879Z,100.00
2022-08-01T04:18:13.341Z,100.00
2022-08-01T04:20:48.794Z,100.00
2022-08-01T04:23:23.174Z,100.00
2022-08-01T04:25:57.666Z,100.00
2022-08-01T04:28:30.770Z,100.00
2022-08-01T04:31:05.795Z,100.00
2022-08-01T04:33:42.958Z,100.00
2022-08-01T04:36:17.703Z,100.00
2022-08-01T04:38:53.396Z,100.00
2022-08-01T04:41:28.469Z,100.00
2022-08-01T04:44:01.757Z,100.00
2022-08-01T04:46:35.856Z,100.00
2022-08-01T04:49:13.321Z,100.00
2022-08-01T04:51:58.731Z,100.00
2022-08-01T04:54:34.305Z,100.00
2022-08-01T04:57:08.283Z,100.00
2022-08-01T04:59:44.914Z,100.00
2022-08-01T05:02:19.181Z,100.00
2022-08-01T05:04:51.556Z,100.00
2022-08-01T05:07:23.732Z,100.00
2022-08-01T05:09:56.121Z,100.00
2022-08-01T05:12:28.221Z,100.00
2022-08-01T05:15:00.643Z,100.00
2022-08-01T05:17:33.282Z,100.00
2022-08-01T05:20:07.356Z,100.00
2022-08-01T05:22:42.192Z,100.00
2022-08-01T05:25:20.331Z,100.00
2022-08-01T05:27:55.473Z,100.00
2022-08-01T05:30:30.471Z,100.00
2022-08-01T05:33:03.243Z,100.00
2022-08-01T05:35:48.525Z,100.00
2022-08-01T05:38:21.434Z,100.00
2022-08-01T05:40:53.816Z,100.00
2022-08-01T05:43:29.255Z,100.00
2022-08-01T05:46:03.200Z,100.00
2022-08-01T05:48:35.443Z,100.00
2022-08-01T05:51:08.267Z,100.00
2022-08-01T05:53:40.595Z,100.00
2022-08-01T05:56:13.416Z,100.00
2022-08-01T05:58:45.991Z,100.00
2022-08-01T06:01:18.268Z,100.00
2022-08-01T06:03:50.508Z,100.00
2022-08-01T06:06:25.342Z,100.00
2022-08-01T06:08:58.106Z,100.00
2022-08-01T06:11:33.837Z,100.00
2022-08-01T06:14:06.403Z,100.00
2022-08-01T06:16:38.727Z,100.00
2022-08-01T06:19:14.120Z,100.00
2022-08-01T06:21:46.529Z,100.00
2022-08-01T06:24:27.840Z,100.00
2022-08-01T06:27:22.038Z,100.00
2022-08-01T06:29:56.123Z,100.00
2022-08-01T06:32:33.396Z,100.00
2022-08-01T06:35:10.180Z,100.00
2022-08-01T06:37:43.363Z,100.00
2022-08-01T06:40:17.415Z,100.00
2022-08-01T06:42:50.389Z,100.00
2022-08-01T06:45:23.839Z,100.00
2022-08-01T06:47:56.382Z,100.00
2022-08-01T06:50:28.596Z,100.00
2022-08-01T06:53:00.880Z,100.00
2022-08-01T06:55:37.496Z,100.00
2022-08-01T06:58:09.679Z,100.00
2022-08-01T07:00:43.449Z,100.00
2022-08-01T07:03:15.994Z,100.00
2022-08-01T07:05:50.948Z,100.00
2022-08-01T07:08:23.224Z,100.00
2022-08-01T07:10:56.729Z,100.00
2022-08-01T07:13:36.691Z,100.00
2022-08-01T07:16:17.654Z,100.00
2022-08-01T07:18:49.894Z,100.00
2022-08-01T07:21:40.463Z,100.00
2022-08-01T07:24:15.686Z,100.00
2022-08-01T07:26:53.452Z,100.00
2022-08-01T07:29:29.013Z,100.00
2022-08-01T07:32:01.893Z,100.00
2022-08-01T07:34:34.211Z,100.00
2022-08-01T07:37:06.379Z,100.00
2022-08-01T07:39:38.681Z,100.00
2022-08-01T07:42:11.311Z,100.00
2022-08-01T07:44:44.393Z,100.00
2022-08-01T07:47:16.894Z,100.00
2022-08-01T07:49:49.912Z,100.00
2022-08-01T07:52:24.742Z,100.00
2022-08-01T07:54:57.401Z,100.00
2022-08-01T07:57:32.337Z,100.00
2022-08-01T08:00:05.761Z,100.00
2022-08-01T08:02:37.991Z,99.89
2022-08-01T08:05:11.797Z,99.79
2022-08-01T08:07:44.244Z,99.65
2022-08-01T08:10:16.533Z,98.79
2022-08-01T08:12:49.535Z,97.82
2022-08-01T08:15:25.127Z,95.87
2022-08-01T08:17:58.474Z,96.31
2022-08-01T08:20:30.892Z,94.85
2022-08-01T08:23:41.435Z,94.73
2022-08-01T08:26:16.052Z,94.32
2022-08-01T08:28:48.604Z,94.50
2022-08-01T08:31:50.970Z,94.77
2022-08-01T08:34:17.145Z,94.62
2022-08-01T08:36:49.930Z,94.71
2022-08-01T08:39:24.913Z,93.77
2022-08-01T08:41:58.821Z,92.79
2022-08-01T08:44:31.035Z,93.39
2022-08-01T08:47:06.515Z,92.33
2022-08-01T08:49:44.355Z,93.14
2022-08-01T08:52:23.737Z,93.02
2022-08-01T08:54:57.840Z,92.79
2022-08-01T08:57:32.372Z,92.63
2022-08-01T09:00:05.939Z,92.49
2022-08-01T09:02:38.312Z,92.09
2022-08-01T09:05:15.047Z,92.28
2022-08-01T09:07:51.303Z,92.44
2022-08-01T09:10:23.766Z,92.12
2022-08-01T09:13:12.857Z,92.10
2022-08-01T09:15:47.348Z,92.34
2022-08-01T09:18:35.020Z,92.49
2022-08-01T09:21:17.382Z,91.87
2022-08-01T09:23:53.479Z,90.46
2022-08-01T09:26:34.409Z,88.73
2022-08-01T09:29:10.427Z,88.31
2022-08-01T09:31:48.082Z,88.81
2022-08-01T09:34:28.361Z,88.76
2022-08-01T09:37:03.422Z,87.27
2022-08-01T09:39:38.787Z,88.59
2022-08-01T09:42:28.734Z,88.02
2022-08-01T09:45:02.737Z,86.79
2022-08-01T09:47:42.010Z,86.91
2022-08-01T09:50:18.874Z,86.68
2022-08-01T09:52:58.186Z,86.40
2022-08-01T09:55:30.659Z,85.11
2022-08-01T09:58:02.889Z,85.47
2022-08-01T10:00:45.554Z,85.31
2022-08-01T10:03:25.964Z,85.19
2022-08-01T10:06:01.838Z,85.05
2022-08-01T10:08:49.778Z,85.25
2022-08-01T10:11:35.801Z,85.20
2022-08-01T10:14:09.252Z,84.63
2022-08-01T10:16:42.169Z,83.79
2022-08-01T10:19:15.530Z,84.16
2022-08-01T10:21:57.676Z,83.67
2022-08-01T10:24:33.626Z,83.89
2022-08-01T10:27:09.199Z,84.11
2022-08-01T10:30:06.079Z,81.35
2022-08-01T10:32:40.903Z,82.55
2022-08-01T10:35:18.249Z,82.85
2022-08-01T10:38:13.710Z,83.16
2022-08-01T10:40:46.790Z,82.83
2022-08-01T10:43:21.966Z,82.78
2022-08-01T10:45:55.236Z,82.35
2022-08-01T10:48:35.882Z,82.22
2022-08-01T10:51:17.886Z,81.67
2022-08-01T10:53:56.172Z,80.94
2022-08-01T10:56:44.935Z,81.57
2022-08-01T10:59:29.066Z,80.96
2022-08-01T11:02:31.703Z,78.83
2022-08-01T11:05:14.456Z,80.47
2022-08-01T11:07:55.013Z,80.76
2022-08-01T11:10:28.247Z,80.81
2022-08-01T11:13:02.155Z,80.41
2022-08-01T11:15:37.447Z,80.38
2022-08-01T11:18:37.668Z,80.35
2022-08-01T11:21:58.666Z,80.13
2022-08-01T11:24:03.999Z,79.43
2022-08-01T11:26:36.253Z,79.24
2022-08-01T11:29:22.758Z,78.67
2022-08-01T11:32:15.929Z,78.93
2022-08-01T11:34:58.490Z,78.70
2022-08-01T11:37:33.064Z,78.79
2022-08-01T11:40:24.985Z,78.29
2022-08-01T11:43:20.531Z,78.29
2022-08-01T11:45:56.232Z,78.48
2022-08-01T11:48:30.562Z,77.64
2022-08-01T11:51:03.133Z,76.99
2022-08-01T11:53:36.756Z,77.21
2022-08-01T11:56:09.900Z,77.44
2022-08-01T11:58:42.373Z,76.26
2022-08-01T12:01:16.653Z,76.25
2022-08-01T12:03:57.731Z,76.59
2022-08-01T12:06:32.611Z,76.70
2022-08-01T12:12:06.784Z,76.44
2022-08-01T12:14:39.215Z,75.97
2022-08-01T12:17:11.440Z,76.26
2022-08-01T12:19:44.835Z,76.39
2022-08-01T12:22:18.333Z,76.37
2022-08-01T12:24:50.622Z,75.12
2022-08-01T12:27:30.342Z,75.17
2022-08-01T12:30:03.376Z,75.53
2022-08-01T12:32:37.782Z,74.97
2022-08-01T12:35:16.483Z,75.16
2022-08-01T12:37:52.951Z,75.09
2022-08-01T12:40:27.099Z,75.05
2022-08-01T12:43:03.277Z,74.89
2022-08-01T12:45:40.594Z,74.07
2022-08-01T12:48:27.439Z,72.91
2022-08-01T12:51:03.676Z,74.07
2022-08-01T12:53:41.067Z,74.28
2022-08-01T12:56:15.831Z,73.90
2022-08-01T12:58:48.189Z,73.72
2022-08-01T13:01:29.474Z,73.78
2022-08-01T13:04:06.163Z,72.94
2022-08-01T13:06:38.986Z,72.91
2022-08-01T13:09:12.880Z,72.31
2022-08-01T13:12:03.809Z,72.38
2022-08-01T13:14:37.256Z,72.66
2022-08-01T13:17:31.612Z,72.58
2022-08-01T13:20:03.861Z,72.80
2022-08-01T13:22:41.316Z,72.54
2022-08-01T13:25:22.284Z,72.75
2022-08-01T13:28:18.548Z,72.53
2022-08-01T13:30:59.015Z,72.34
2022-08-01T13:33:43.806Z,72.17
2022-08-01T13:36:16.712Z,71.93
2022-08-01T13:39:07.109Z,72.71
2022-08-01T13:41:41.609Z,73.56
2022-08-01T13:44:14.444Z,73.39
2022-08-01T13:46:49.821Z,73.06
2022-08-01T13:49:23.783Z,72.16
2022-08-01T13:51:56.057Z,73.05
2022-08-01T13:54:28.661Z,73.29
2022-08-01T13:57:01.297Z,73.48
2022-08-01T13:59:33.736Z,73.09
2022-08-01T14:02:06.284Z,73.32
2022-08-01T14:04:38.678Z,74.21
2022-08-01T14:07:14.535Z,74.13
2022-08-01T14:10:04.324Z,73.36
2022-08-01T14:12:40.053Z,74.39
2022-08-01T14:15:13.495Z,74.16
2022-08-01T14:17:47.907Z,74.26
2022-08-01T14:20:20.956Z,73.89
2022-08-01T14:22:53.192Z,73.60
2022-08-01T14:26:03.789Z,72.45
2022-08-01T14:28:17.943Z,72.64
2022-08-01T14:30:50.011Z,72.58
2022-08-01T14:33:22.249Z,71.77
2022-08-01T14:36:05.266Z,72.38
2022-08-01T14:38:49.551Z,72.23
2022-08-01T14:41:22.597Z,72.08
2022-08-01T14:43:54.839Z,71.59
2022-08-01T14:46:27.134Z,71.41
2022-08-01T14:48:59.325Z,70.80
2022-08-01T14:51:34.151Z,70.75
2022-08-01T14:54:06.866Z,71.09
2022-08-01T14:56:41.054Z,71.19
2022-08-01T14:59:21.740Z,71.29
2022-08-01T15:01:54.628Z,70.57
2022-08-01T15:04:27.014Z,70.60
2022-08-01T15:06:59.191Z,71.02
2022-08-01T15:09:31.737Z,70.79
2022-08-01T15:12:04.251Z,70.30
2022-08-01T15:14:52.144Z,70.76
2022-08-01T15:17:26.278Z,70.69
2022-08-01T15:20:00.059Z,70.35
2022-08-01T15:22:33.076Z,70.35
2022-08-01T15:25:06.398Z,70.30
2022-08-01T15:27:38.760Z,70.35
2022-08-01T15:30:12.245Z,70.25
2022-08-01T15:32:44.605Z,70.85
2022-08-01T15:35:16.908Z,71.23
2022-08-01T15:37:49.123Z,71.70
2022-08-01T15:40:21.499Z,72.04
2022-08-01T15:42:54.345Z,72.07
2022-08-01T15:48:20.516Z,72.15
2022-08-01T15:50:52.837Z,72.92
2022-08-01T15:53:25.086Z,73.30
2022-08-01T15:55:57.801Z,73.25
2022-08-01T15:58:30.108Z,73.74
2022-08-01T16:01:02.439Z,73.82
2022-08-01T16:03:34.717Z,74.28
2022-08-01T16:06:08.103Z,74.51
2022-08-01T16:08:40.361Z,74.73
2022-08-01T16:11:12.654Z,75.23
2022-08-01T16:13:46.462Z,75.84
2022-08-01T16:16:18.981Z,76.49
2022-08-01T16:18:53.926Z,76.84
2022-08-01T16:21:26.306Z,77.01
2022-08-01T16:23:58.657Z,77.17
2022-08-01T16:26:30.895Z,76.69
2022-08-01T16:29:03.045Z,76.67
2022-08-01T16:32:02.579Z,76.54
2022-08-01T16:34:28.051Z,77.29
2022-08-01T16:37:02.701Z,77.15
2022-08-01T16:39:35.128Z,77.03
2022-08-01T16:42:08.121Z,77.13
2022-08-01T16:44:41.517Z,76.91
2022-08-01T16:47:14.077Z,77.21
2022-08-01T16:49:46.304Z,77.15
2022-08-01T16:52:18.907Z,77.08
2022-08-01T16:54:51.143Z,77.39
2022-08-01T16:57:23.402Z,77.55
2022-08-01T16:59:55.513Z,76.94
2022-08-01T17:02:28.728Z,77.09
2022-08-01T17:05:01.027Z,76.96
2022-08-01T17:07:39.606Z,77.18
2022-08-01T17:10:14.208Z,77.02
2022-08-01T17:12:46.698Z,76.96
2022-08-01T17:15:18.932Z,77.35
2022-08-01T17:17:53.362Z,77.76
2022-08-01T17:20:29.938Z,77.60
2022-08-01T17:23:02.422Z,78.34
2022-08-01T17:25:34.649Z,77.92
2022-08-01T17:28:07.269Z,77.89
2022-08-01T17:30:40.556Z,77.77
2022-08-01T17:33:12.674Z,77.97
2022-08-01T17:35:47.131Z,78.34
2022-08-01T17:38:19.643Z,78.40
2022-08-01T17:40:51.849Z,78.67
2022-08-01T17:43:24.210Z,78.60
2022-08-01T17:45:57.662Z,78.98
2022-08-01T17:48:30.127Z,78.98
2022-08-01T17:51:02.359Z,79.11
2022-08-01T17:53:35.116Z,79.48
2022-08-01T17:56:10.152Z,79.64
2022-08-01T17:58:51.796Z,79.89
2022-08-01T18:01:27.621Z,80.00
2022-08-01T18:04:01.485Z,80.19
2022-08-01T18:06:35.910Z,80.12
2022-08-01T18:09:11.230Z,80.44
2022-08-01T18:11:43.708Z,80.41
2022-08-01T18:14:16.770Z,80.48
2022-08-01T18:16:49.044Z,80.58
2022-08-01T18:19:21.759Z,80.80
2022-08-01T18:21:54.503Z,80.88
2022-08-01T18:24:26.859Z,81.10
2022-08-01T18:26:59.760Z,81.28
2022-08-01T18:29:48.173Z,81.37
2022-08-01T18:32:21.746Z,81.51
2022-08-01T18:34:54.151Z,81.54
2022-08-01T18:37:26.796Z,81.51
2022-08-01T18:40:02.743Z,81.85
2022-08-01T18:42:37.202Z,82.16
2022-08-01T18:45:11.388Z,81.95
2022-08-01T18:47:45.099Z,82.29
2022-08-01T18:50:17.593Z,82.69
2022-08-01T18:52:50.002Z,82.91
2022-08-01T18:55:22.709Z,83.13
2022-08-01T18:57:55.704Z,83.23
2022-08-01T19:00:27.986Z,83.50
2022-08-01T19:03:00.677Z,83.56
2022-08-01T19:05:35.065Z,83.77
2022-08-01T19:08:13.942Z,83.82
2022-08-01T19:10:47.552Z,84.04
2022-08-01T19:13:20.783Z,84.22
2022-08-01T19:15:53.282Z,84.54
2022-08-01T19:18:36.871Z,84.81
2022-08-01T19:21:09.750Z,84.89
2022-08-01T19:23:59.551Z,85.23
2022-08-01T19:26:35.875Z,85.40
2022-08-01T19:29:20.098Z,85.48
2022-08-01T19:31:55.175Z,85.59
2022-08-01T19:34:29.650Z,85.55
2022-08-01T19:37:02.456Z,85.91
2022-08-01T19:39:36.764Z,86.09
2022-08-01T19:42:10.113Z,86.45
2022-08-01T19:44:46.980Z,86.79
2022-08-01T19:47:24.025Z,86.55
2022-08-01T19:49:57.080Z,86.46
2022-08-01T19:52:31.873Z,86.82
2022-08-01T19:55:07.536Z,86.98
2022-08-01T19:57:45.614Z,87.38
2022-08-01T20:00:27.691Z,87.34
2022-08-01T20:03:02.911Z,87.56
2022-08-01T20:05:36.519Z,87.76
2022-08-01T20:08:11.597Z,87.88
2022-08-01T20:10:44.414Z,88.35
2022-08-01T20:13:20.335Z,88.22
2022-08-01T20:15:54.236Z,88.43
2022-08-01T20:18:26.736Z,88.70
2022-08-01T20:21:00.072Z,88.80
2022-08-01T20:23:33.105Z,88.99
2022-08-01T20:26:06.766Z,89.12
2022-08-01T20:28:42.029Z,89.34
2022-08-01T20:31:14.550Z,89.45
2022-08-01T20:33:49.823Z,89.49
2022-08-01T20:36:25.175Z,89.67
2022-08-01T20:39:00.420Z,90.09
2022-08-01T20:41:33.017Z,89.98
2022-08-01T20:44:07.409Z,90.24
2022-08-01T20:46:40.510Z,90.48
2022-08-01T20:49:14.777Z,90.62
2022-08-01T20:51:49.002Z,90.50
2022-08-01T20:54:21.681Z,90.26
2022-08-01T20:57:01.006Z,90.57
2022-08-01T20:59:56.778Z,90.93
2022-08-01T21:02:41.438Z,91.28
2022-08-01T21:05:17.401Z,91.50
2022-08-01T21:07:54.056Z,91.41
2022-08-01T21:10:30.660Z,91.79
2022-08-01T21:13:06.266Z,91.66
2022-08-01T21:16:07.490Z,92.03
2022-08-01T21:18:58.143Z,92.30
2022-08-01T21:21:42.341Z,92.56
2022-08-01T21:24:18.972Z,92.64
2022-08-01T21:26:54.900Z,92.84
2022-08-01T21:29:30.037Z,93.01
2022-08-01T21:32:15.587Z,93.12
2022-08-01T21:34:51.858Z,93.53
2022-08-01T21:37:24.743Z,93.13
2022-08-01T21:39:58.805Z,93.36
2022-08-01T21:42:31.115Z,93.50
2022-08-01T21:45:05.383Z,93.15
2022-08-01T21:47:39.092Z,93.40
2022-08-01T21:50:11.836Z,93.39
2022-08-01T21:52:50.417Z,93.44
2022-08-01T21:55:32.201Z,93.56
2022-08-01T21:58:24.879Z,93.32
2022-08-01T22:01:04.078Z,93.54
2022-08-01T22:03:43.738Z,93.73
2022-08-01T22:06:17.713Z,93.57
2022-08-01T22:08:54.181Z,93.70
2022-08-01T22:11:29.686Z,93.33
2022-08-01T22:14:06.318Z,93.38
2022-08-01T22:16:40.898Z,93.50
2022-08-01T22:19:29.617Z,93.60
2022-08-01T22:22:09.021Z,94.03
2022-08-01T22:25:04.534Z,94.01
2022-08-01T22:28:03.183Z,94.03
2022-08-01T22:30:35.695Z,94.09
2022-08-01T22:33:16.447Z,94.34
2022-08-01T22:35:53.632Z,94.19
2022-08-01T22:38:27.377Z,94.26
2022-08-01T22:41:05.589Z,94.45
2022-08-01T22:43:44.216Z,94.37
2022-08-01T22:46:26.335Z,94.07
2022-08-01T22:49:09.263Z,94.44
2022-08-01T22:51:55.525Z,94.68
2022-08-01T22:54:37.473Z,94.78
2022-08-01T22:57:22.625Z,94.81
2022-08-01T23:00:00.560Z,94.74
2022-08-01T23:02:35.441Z,94.93
2022-08-01T23:05:09.867Z,95.03
2022-08-01T23:07:46.445Z,95.33
2022-08-01T23:10:19.762Z,95.60
2022-08-01T23:12:54.249Z,95.70
2022-08-01T23:15:27.673Z,95.84
2022-08-01T23:18:02.221Z,96.38
2022-08-01T23:20:37.300Z,96.36
2022-08-01T23:23:10.858Z,96.42
2022-08-01T23:25:45.087Z,96.51
2022-08-01T23:28:17.952Z,96.68
2022-08-01T23:30:50.370Z,97.01
2022-08-01T23:33:22.598Z,97.13
2022-08-01T23:35:55.001Z,97.02
2022-08-01T23:38:27.676Z,97.54
2022-08-01T23:40:59.955Z,97.51
2022-08-01T23:43:33.024Z,97.65
2022-08-01T23:46:05.668Z,97.90
2022-08-01T23:48:38.739Z,98.02
2022-08-01T23:51:17.256Z,98.36
2022-08-01T23:53:56.343Z,98.24
2022-08-01T23:56:28.476Z,98.07
2022-08-01T23:59:02.915Z,98.49
